Alpine Persefone — A8MS7 — position and weather

sailwx.info

Track history (hours):
 
Tides and Currents Weather Stations Pressure Air Temp Water Temp Dewpoint Dewpoint Depression Visibility Wind Speed Wind Dir Waves Ship Positions

Alpine Persefone

Last reported at 2018-Feb-12 01:31 UTC. Time now 2018-Feb-19 20:19 UTC.
Position N 01°13' E 103°56'.

Length 226 m; draft 13 m.

Type: Tanker. MMSI: 636013411.

Date/timePositionNaut miles runAvg speedWind from/ knotsBaromVisibWave heightAir tempDewpointWater temp
2018-Feb-12 01:31N 01°13' E 103°56'010.6
2018-Feb-12 01:30N 01°13' E 103°56'510.8
2018-Feb-12 01:00N 01°11' E 103°51'3 5.0
2018-Feb-12 00:29N 01°13' E 103°49'0 0.4
2018-Feb-11 23:57N 01°13' E 103°49'0 0.3
2018-Feb-11 23:30N 01°13' E 103°49'0 0.4
2018-Feb-11 23:00N 01°13' E 103°49'0 0.1
2018-Feb-11 22:30N 01°13' E 103°49'0 0.3
2018-Feb-11 21:57N 01°13' E 103°49'0 0.4
2018-Feb-11 21:30N 01°13' E 103°49'0 0.3
2018-Feb-11 20:51N 01°13' E 103°49'0 0.4
2018-Feb-11 20:27N 01°13' E 103°49'0 0.1
2018-Feb-11 20:00N 01°13' E 103°49'0 0.1
2018-Feb-11 19:30N 01°13' E 103°49'0 0.2
2018-Feb-11 18:54N 01°13' E 103°49'0 0.4
2018-Feb-11 18:30N 01°13' E 103°49'0 0.4
2018-Feb-11 18:00N 01°13' E 103°49'0 0.3
2018-Feb-11 17:30N 01°13' E 103°49'0 0.3
2018-Feb-11 16:54N 01°13' E 103°49'0 0.3
2018-Feb-11 16:18N 01°13' E 103°49'0 0.4
2018-Feb-11 15:54N 01°13' E 103°49'0 0.0
2018-Feb-11 15:30N 01°13' E 103°49'0 0.2
2018-Feb-11 14:57N 01°13' E 103°49'0 0.1
2018-Feb-11 13:39N 01°13' E 103°49'0 0.5
2018-Feb-11 13:18N 01°13' E 103°49'0 0.2
2018-Feb-11 12:58N 01°13' E 103°49'2 3.8
2018-Feb-11 12:30N 01°11' E 103°49'1 0.0
2018-Feb-10 09:56N 01°12' E 103°48'0 0.0
2018-Feb-10 09:08N 01°12' E 103°48'0 0.0
2018-Feb-10 08:56N 01°12' E 103°48'0 0.0
2018-Feb-10 06:47N 01°12' E 103°48'0 0.3
2018-Feb-10 06:30N 01°12' E 103°48'1 2.5
2018-Feb-10 06:00N 01°13' E 103°49'0 0.5
2018-Feb-10 05:23N 01°13' E 103°49'0 0.2
2018-Feb-10 04:59N 01°13' E 103°49'0 0.1
2018-Feb-10 04:26N 01°13' E 103°49'0 0.0
2018-Feb-10 03:59N 01°13' E 103°49'0 0.0
2018-Feb-10 03:26N 01°13' E 103°49'0 0.1
2018-Feb-10 02:59N 01°13' E 103°49'0 0.1
2018-Feb-10 02:26N 01°13' E 103°49'0 0.8
2018-Feb-10 02:00N 01°13' E 103°49'2 4.0
2018-Feb-10 01:30N 01°13' E 103°51'5 9.1
2018-Feb-10 01:00N 01°14' E 103°56'4 6.9
2018-Feb-10 00:27N 01°16' E 103°59'3 6.4
2018-Feb-09 23:57N 01°16' E 104°02'  
Track history (hours):
 
Tides and Currents Weather Stations Pressure Air Temp Water Temp Dewpoint Dewpoint Depression Visibility Wind Speed Wind Dir Waves Ship Positions

Alpine Persefone

Last reported at 2018-Feb-12 01:31 UTC. Time now 2018-Feb-19 20:19 UTC.
Position N 01°13' E 103°56'.

Length 226 m; draft 13 m.

Type: Tanker. MMSI: 636013411.

Date/timePositionNaut miles runAvg speedWind from/ knotsBaromVisibWave heightAir tempDewpointWater temp
2018-Feb-12 01:31N 01°13' E 103°56'010.6
2018-Feb-12 01:30N 01°13' E 103°56'510.8
2018-Feb-12 01:00N 01°11' E 103°51'3 5.0
2018-Feb-12 00:29N 01°13' E 103°49'0 0.4
2018-Feb-11 23:57N 01°13' E 103°49'0 0.3
2018-Feb-11 23:30N 01°13' E 103°49'0 0.4
2018-Feb-11 23:00N 01°13' E 103°49'0 0.1
2018-Feb-11 22:30N 01°13' E 103°49'0 0.3
2018-Feb-11 21:57N 01°13' E 103°49'0 0.4
2018-Feb-11 21:30N 01°13' E 103°49'0 0.3
2018-Feb-11 20:51N 01°13' E 103°49'0 0.4
2018-Feb-11 20:27N 01°13' E 103°49'0 0.1
2018-Feb-11 20:00N 01°13' E 103°49'0 0.1
2018-Feb-11 19:30N 01°13' E 103°49'0 0.2
2018-Feb-11 18:54N 01°13' E 103°49'0 0.4
2018-Feb-11 18:30N 01°13' E 103°49'0 0.4
2018-Feb-11 18:00N 01°13' E 103°49'0 0.3
2018-Feb-11 17:30N 01°13' E 103°49'0 0.3
2018-Feb-11 16:54N 01°13' E 103°49'0 0.3
2018-Feb-11 16:18N 01°13' E 103°49'0 0.4
2018-Feb-11 15:54N 01°13' E 103°49'0 0.0
2018-Feb-11 15:30N 01°13' E 103°49'0 0.2
2018-Feb-11 14:57N 01°13' E 103°49'0 0.1
2018-Feb-11 13:39N 01°13' E 103°49'0 0.5
2018-Feb-11 13:18N 01°13' E 103°49'0 0.2
2018-Feb-11 12:58N 01°13' E 103°49'2 3.8
2018-Feb-11 12:30N 01°11' E 103°49'1 0.0
2018-Feb-10 09:56N 01°12' E 103°48'0 0.0
2018-Feb-10 09:08N 01°12' E 103°48'0 0.0
2018-Feb-10 08:56N 01°12' E 103°48'0 0.0
2018-Feb-10 06:47N 01°12' E 103°48'0 0.3
2018-Feb-10 06:30N 01°12' E 103°48'1 2.5
2018-Feb-10 06:00N 01°13' E 103°49'0 0.5
2018-Feb-10 05:23N 01°13' E 103°49'0 0.2
2018-Feb-10 04:59N 01°13' E 103°49'0 0.1
2018-Feb-10 04:26N 01°13' E 103°49'0 0.0
2018-Feb-10 03:59N 01°13' E 103°49'0 0.0
2018-Feb-10 03:26N 01°13' E 103°49'0 0.1
2018-Feb-10 02:59N 01°13' E 103°49'0 0.1
2018-Feb-10 02:26N 01°13' E 103°49'0 0.8
2018-Feb-10 02:00N 01°13' E 103°49'2 4.0
2018-Feb-10 01:30N 01°13' E 103°51'5 9.1
2018-Feb-10 01:00N 01°14' E 103°56'4 6.9
2018-Feb-10 00:27N 01°16' E 103°59'3 6.4
2018-Feb-09 23:57N 01°16' E 104°02'  

Dump ship's entire track history